Time;durP1;ratioP1;P1;durP2;ratioP2;P2;SDS_P1;SDS_P2;PMS_P1;PMS_P2;Temp;Humidity;BMP_temperature;BMP_pressure;BME280_temperature;BME280_humidity;BME280_pressure;Samples;Min_cycle;Max_cycle;Signal;HPM_P1;HPM_P2
2022/08/27 00:00:49;;;;;;;;;5.67;5.00;;;;;20.63;72.66;100927.00;5029387;28;45345;-85
2022/08/27 00:03:15;;;;;;;;;3.67;3.67;;;;;20.61;73.86;100924.31;5011971;28;44825;-84
2022/08/27 00:05:41;;;;;;;;;5.00;5.00;;;;;20.62;74.23;100931.50;5029367;28;45293;-85
2022/08/27 00:08:09;;;;;;;;;5.00;5.00;;;;;20.56;73.67;100926.19;5042422;28;45089;-85
2022/08/27 00:10:35;;;;;;;;;4.67;4.00;;;;;20.50;74.34;100921.84;5049944;28;45233;-85
2022/08/27 00:13:00;;;;;;;;;6.00;6.00;;;;;20.44;74.45;100916.59;5048570;28;45423;-84
2022/08/27 00:15:27;;;;;;;;;6.00;5.00;;;;;20.47;74.56;100921.91;5044468;28;45459;-85
2022/08/27 00:17:52;;;;;;;;;5.00;5.00;;;;;20.41;75.71;100913.06;5029954;28;47372;-85
2022/08/27 00:20:21;;;;;;;;;4.00;4.00;;;;;20.42;75.40;100921.16;5029047;28;45434;-85
2022/08/27 00:22:46;;;;;;;;;4.00;4.00;;;;;20.40;75.58;100914.91;5012758;28;45356;-85
2022/08/27 00:25:12;;;;;;;;;4.67;4.67;;;;;20.42;75.18;100926.56;5017484;28;45571;-85
2022/08/27 00:27:38;;;;;;;;;5.00;5.00;;;;;20.42;76.30;100921.16;5033339;28;45386;-85
2022/08/27 00:30:07;;;;;;;;;4.00;4.00;;;;;20.39;76.24;100919.38;5016959;28;45425;-85
2022/08/27 00:32:33;;;;;;;;;5.00;5.00;;;;;20.35;75.92;100924.91;5016385;28;45345;-85
2022/08/27 00:34:58;;;;;;;;;4.00;4.00;;;;;20.33;76.27;100924.94;5016664;28;44912;-85
2022/08/27 00:37:23;;;;;;;;;7.00;6.00;;;;;20.35;76.02;100919.50;5032664;28;46144;-85
2022/08/27 00:39:50;;;;;;;;;5.00;5.00;;;;;20.31;76.64;100920.50;5032690;28;45257;-85
2022/08/27 00:42:16;;;;;;;;;5.00;5.00;;;;;20.29;76.43;100922.34;5030870;28;44678;-85
2022/08/27 00:44:42;;;;;;;;;6.00;6.00;;;;;20.27;76.27;100916.97;5017577;28;44753;-85
2022/08/27 00:47:21;;;;;;;;;4.67;4.00;;;;;20.23;76.35;100912.56;5051827;28;45393;-85
2022/08/27 00:49:53;;;;;;;;;5.00;5.00;;;;;20.21;76.93;100917.13;5052376;28;45442;-85
2022/08/27 00:52:31;;;;;;;;;5.00;5.00;;;;;20.13;77.52;100917.28;5048680;28;45391;-85
2022/08/27 00:55:19;;;;;;;;;7.33;6.67;;;;;20.18;77.47;100923.50;5048067;28;44891;-85
2022/08/27 00:57:49;;;;;;;;;6.00;6.00;;;;;20.15;77.75;100911.88;5032887;28;47432;-85
2022/08/27 01:00:18;;;;;;;;;7.00;7.00;;;;;20.24;77.58;100918.84;5050728;28;45450;-85
2022/08/27 01:02:45;;;;;;;;;5.00;5.00;;;;;20.23;78.09;100906.28;5049890;28;45734;-86
2022/08/27 01:05:17;;;;;;;;;7.00;7.00;;;;;20.30;77.68;100919.63;5032605;28;45292;-86
2022/08/27 01:07:47;;;;;;;;;5.00;5.00;;;;;20.29;77.64;100916.94;5049112;28;47302;-85
2022/08/27 01:10:16;;;;;;;;;6.00;6.00;;;;;20.25;78.11;100915.25;5031801;28;45387;-86
2022/08/27 01:16:07;;;;;;;;;6.33;6.33;;;;;20.23;78.56;100917.09;5051442;28;45792;-85
2022/08/27 01:18:36;;;;;;;;;4.33;4.33;;;;;20.15;78.42;100911.88;5033043;28;47931;-85
2022/08/27 01:21:33;;;;;;;;;5.33;5.00;;;;;20.19;78.38;100922.56;5049666;28;44820;-85
2022/08/27 01:24:06;;;;;;;;;6.00;6.00;;;;;20.18;78.60;100920.78;5051713;28;45507;-85
2022/08/27 01:26:32;;;;;;;;;7.00;7.00;;;;;20.22;78.46;100915.31;5035087;28;45339;-85
2022/08/27 01:28:58;;;;;;;;;3.25;3.25;;;;;20.22;79.31;100910.81;5052174;28;45482;-85
2022/08/27 01:31:23;;;;;;;;;4.00;4.00;;;;;20.20;79.71;100918.06;5034027;28;45557;-85
2022/08/27 01:33:58;;;;;;;;;6.00;6.00;;;;;20.16;79.03;100910.97;5050569;28;45403;-84
2022/08/27 01:36:23;;;;;;;;;3.00;3.00;;;;;20.21;81.45;100921.66;5051530;28;45462;-85
2022/08/27 01:38:49;;;;;;;;;3.33;3.33;;;;;20.18;80.21;100909.13;5049685;28;46903;-85
2022/08/27 01:41:15;;;;;;;;;6.00;6.00;;;;;20.15;79.32;100915.44;5049463;28;45410;-85
2022/08/27 01:43:40;;;;;;;;;4.67;4.67;;;;;20.21;79.86;100916.25;5048361;28;45503;-85
2022/08/27 01:46:06;;;;;;;;;3.33;3.33;;;;;20.21;80.04;100913.53;5032892;28;44877;-85
2022/08/27 01:48:33;;;;;;;;;5.00;4.67;;;;;20.20;79.08;100907.25;5033415;28;45532;-83
2022/08/27 01:50:59;;;;;;;;;3.00;3.00;;;;;20.19;78.46;100900.94;5049877;28;45466;-84
2022/08/27 01:53:25;;;;;;;;;4.33;4.33;;;;;20.25;78.91;100915.25;5050638;28;45443;-84
2022/08/27 01:55:52;;;;;;;;;5.00;5.00;;;;;20.21;78.39;100913.53;5028411;28;45546;-84
2022/08/27 01:58:22;;;;;;;;;4.00;4.00;;;;;20.18;78.03;100910.00;5047526;28;46646;-84
2022/08/27 02:00:52;;;;;;;;;3.67;3.67;;;;;20.11;79.22;100894.84;5030835;28;45485;-84
2022/08/27 02:03:18;;;;;;;;;3.33;3.33;;;;;20.14;79.59;100902.88;5028737;28;45370;-84
2022/08/27 02:05:45;;;;;;;;;3.67;3.67;;;;;20.03;78.66;100896.81;5030352;28;45470;-84
2022/08/27 02:08:14;;;;;;;;;3.00;3.00;;;;;20.11;78.68;100902.06;5046741;28;47288;-85
2022/08/27 02:10:41;;;;;;;;;2.00;2.00;;;;;20.07;78.55;100895.84;5053065;28;45410;-85
2022/08/27 02:13:07;;;;;;;;;4.00;3.67;;;;;20.12;78.35;100902.03;5049303;28;45498;-85
2022/08/27 02:15:33;;;;;;;;;5.67;5.00;;;;;20.11;78.36;100892.13;5031888;28;44929;-85
2022/08/27 02:18:00;;;;;;;;;3.67;3.67;;;;;20.17;79.22;100904.63;5031235;28;47400;-85
2022/08/27 02:20:26;;;;;;;;;4.00;4.00;;;;;20.14;78.38;100905.59;5029034;28;45422;-85
2022/08/27 02:22:52;;;;;;;;;4.00;4.00;;;;;20.11;78.64;100888.56;5027303;28;45392;-85
2022/08/27 02:25:19;;;;;;;;;4.67;4.67;;;;;20.14;79.20;100900.19;5028109;28;45477;-85
2022/08/27 02:27:45;;;;;;;;;7.00;4.67;;;;;20.11;78.73;100902.94;5028853;28;46202;-85
2022/08/27 02:33:32;;;;;;;;;3.33;3.33;;;;;20.16;78.66;100905.56;5028008;28;45380;-85
2022/08/27 02:35:58;;;;;;;;;4.33;4.33;;;;;20.13;77.92;100900.22;5029356;28;45394;-85
2022/08/27 02:38:24;;;;;;;;;4.67;4.67;;;;;20.19;78.10;100903.66;5030051;28;46815;-84
2022/08/27 02:40:49;;;;;;;;;3.67;3.67;;;;;20.25;77.78;100913.44;5030176;28;44774;-84
2022/08/27 02:43:15;;;;;;;;;3.00;3.00;;;;;20.23;77.59;100898.19;5012596;28;44740;-84
2022/08/27 02:45:41;;;;;;;;;3.67;3.67;;;;;20.28;77.44;100899.88;5012563;28;45349;-85
2022/08/27 02:48:07;;;;;;;;;4.67;1.00;;;;;20.28;77.76;100890.84;5028960;28;45394;-84
2022/08/27 02:50:33;;;;;;;;;5.00;3.67;;;;;20.26;78.14;100900.81;5029413;28;45347;-84
2022/08/27 02:53:04;;;;;;;;;3.33;3.33;;;;;20.25;78.21;100888.25;5030579;28;44864;-85
2022/08/27 02:55:32;;;;;;;;;3.00;3.00;;;;;20.16;77.64;100895.63;5012545;28;45348;-84
2022/08/27 02:57:57;;;;;;;;;3.00;3.00;;;;;20.11;77.96;100886.75;5012263;28;47202;-84
2022/08/27 03:00:24;;;;;;;;;4.67;4.67;;;;;20.15;77.77;100893.84;5012772;28;45447;-84
2022/08/27 03:02:51;;;;;;;;;4.00;4.00;;;;;20.10;77.44;100887.69;5029578;28;45418;-85
2022/08/27 03:05:17;;;;;;;;;6.00;3.67;;;;;20.08;78.94;100878.72;5027478;28;45466;-84
2022/08/27 03:07:43;;;;;;;;;3.00;3.00;;;;;20.05;78.12;100889.56;5028439;28;47157;-86
2022/08/27 03:10:12;;;;;;;;;3.00;3.00;;;;;19.99;78.39;100876.22;5029914;28;45450;-85
2022/08/27 03:12:38;;;;;;;;;6.00;3.33;;;;;19.95;79.35;100880.78;5029020;28;45479;-85
2022/08/27 03:15:06;;;;;;;;;6.00;3.00;;;;;19.86;81.11;100872.03;5030881;28;45791;-85
2022/08/27 03:20:17;;;;;;;;;2.00;2.00;;;;;19.75;80.63;100872.25;5031109;28;45411;-84
2022/08/27 03:22:42;;;;;;;;;3.67;3.67;;;;;19.71;80.55;100873.25;5028769;28;45616;-84
2022/08/27 03:25:09;;;;;;;;;4.67;4.67;;;;;19.68;81.33;100874.19;5026988;28;45424;-85
2022/08/27 03:27:34;;;;;;;;;3.00;3.00;;;;;19.68;82.03;100876.00;5028543;28;45378;-83
2022/08/27 03:30:02;;;;;;;;;3.00;3.00;;;;;19.62;82.02;100871.59;5027579;28;45359;-84
2022/08/27 03:32:28;;;;;;;;;5.00;4.67;;;;;19.63;81.32;100878.75;5010200;28;45590;-85
2022/08/27 03:34:57;;;;;;;;;7.00;6.67;;;;;19.61;82.65;100883.31;5027524;28;45515;-85
2022/08/27 03:37:22;;;;;;;;;4.00;4.00;;;;;19.54;82.20;100889.78;5008678;28;47830;-85
2022/08/27 03:39:47;;;;;;;;;5.33;4.00;;;;;19.53;81.97;100885.28;5028316;28;45235;-85
2022/08/27 03:42:13;;;;;;;;;4.67;4.67;;;;;19.47;82.79;100877.31;5026524;28;44964;-85
2022/08/27 03:44:39;;;;;;;;;3.00;3.00;;;;;19.46;83.84;100873.72;5026126;28;45320;-85
2022/08/27 03:47:04;;;;;;;;;4.67;4.00;;;;;19.51;84.57;100889.81;5024680;28;47029;-85
2022/08/27 03:49:30;;;;;;;;;4.00;4.00;;;;;19.45;83.28;100879.16;5008648;28;45356;-85
2022/08/27 03:51:55;;;;;;;;;6.67;4.33;;;;;19.45;83.41;100884.53;5027073;28;45417;-84
2022/08/27 03:54:21;;;;;;;;;5.00;5.00;;;;;19.43;84.90;100886.38;5009416;28;45293;-85
2022/08/27 03:56:46;;;;;;;;;5.00;5.00;;;;;19.37;85.85;100880.22;5026453;28;45435;-84
2022/08/27 03:59:14;;;;;;;;;4.67;4.67;;;;;19.34;85.93;100874.00;5025598;28;45205;-84
2022/08/27 04:01:39;;;;;;;;;3.00;3.00;;;;;19.32;84.22;100879.41;5009349;28;45427;-84
2022/08/27 04:04:05;;;;;;;;;4.00;4.00;;;;;19.33;84.80;100886.59;5008341;28;44933;-84
2022/08/27 04:06:33;;;;;;;;;4.00;4.00;;;;;19.28;85.70;100877.69;5008733;28;47472;-84
2022/08/27 04:08:59;;;;;;;;;5.00;4.33;;;;;19.27;84.65;100881.31;5025994;28;45402;-84
2022/08/27 04:11:25;;;;;;;;;3.00;3.00;;;;;19.29;85.50;100879.47;5027272;28;45379;-85
2022/08/27 04:13:50;;;;;;;;;4.00;4.00;;;;;19.25;85.65;100874.16;5012067;28;45461;-84
2022/08/27 04:16:16;;;;;;;;;4.00;4.00;;;;;19.28;84.96;100872.28;5014214;28;47792;-84
2022/08/27 04:18:41;;;;;;;;;4.67;3.00;;;;;19.31;85.33;100885.72;5030111;28;45390;-85
2022/08/27 04:21:12;;;;;;;;;4.67;4.00;;;;;19.23;85.10;100876.00;5048050;28;45154;-84
2022/08/27 04:23:39;;;;;;;;;4.00;4.00;;;;;19.24;85.50;100875.09;5046935;28;44793;-85
2022/08/27 04:26:06;;;;;;;;;7.67;5.00;;;;;19.16;86.00;100867.16;5048510;28;45529;-85
2022/08/27 04:28:32;;;;;;;;;5.00;4.33;;;;;19.19;85.92;100873.38;5046310;28;45414;-84
2022/08/27 04:30:58;;;;;;;;;5.00;3.00;;;;;19.13;86.94;100860.00;5046545;28;45376;-85
2022/08/27 04:33:23;;;;;;;;;5.00;5.00;;;;;19.18;86.74;100868.00;5026941;28;45888;-85
2022/08/27 04:36:00;;;;;;;;;4.33;4.33;;;;;19.12;87.46;100854.66;5044517;28;47159;-85
2022/08/27 04:38:27;;;;;;;;;6.00;5.00;;;;;19.18;86.53;100863.50;5046516;28;45410;-84
2022/08/27 04:43:37;;;;;;;;;4.67;4.67;;;;;19.20;87.03;100868.84;5045504;28;45390;-85
2022/08/27 04:46:03;;;;;;;;;5.00;4.00;;;;;19.20;86.72;100863.47;5014173;28;47061;-84
2022/08/27 04:48:29;;;;;;;;;6.00;4.00;;;;;19.18;85.68;100859.91;5009081;28;46048;-85
2022/08/27 04:50:55;;;;;;;;;3.00;3.00;;;;;19.21;86.94;100873.34;5008679;28;45424;-85
2022/08/27 04:53:20;;;;;;;;;5.00;4.00;;;;;19.17;85.69;100858.16;5026773;28;45637;-85
2022/08/27 04:55:50;;;;;;;;;4.33;4.33;;;;;19.20;85.51;100871.56;5009033;28;46589;-85
2022/08/27 04:58:17;;;;;;;;;4.00;4.00;;;;;19.24;85.79;100875.09;5008224;28;45431;-84
2022/08/27 05:00:51;;;;;;;;;4.33;4.33;;;;;19.21;85.49;100865.25;5026732;28;45367;-85
2022/08/27 05:03:20;;;;;;;;;6.00;6.00;;;;;19.24;85.43;100870.56;5007873;28;44853;-84
2022/08/27 05:05:46;;;;;;;;;5.00;5.00;;;;;19.24;85.43;100867.88;5009611;28;48072;-84
2022/08/27 05:08:12;;;;;;;;;5.00;4.67;;;;;19.29;85.22;100871.38;5009835;28;45457;-84
2022/08/27 05:10:52;;;;;;;;;5.00;5.00;;;;;19.32;85.06;100883.91;5012813;28;44752;-85
2022/08/27 05:13:25;;;;;;;;;5.00;4.33;;;;;19.35;85.08;100879.34;5012953;28;44858;-85
2022/08/27 05:15:58;;;;;;;;;5.33;5.33;;;;;19.39;84.98;100886.47;5013453;28;46783;-85
2022/08/27 05:18:24;;;;;;;;;5.00;4.67;;;;;19.38;84.66;100878.41;5027859;28;45587;-85
2022/08/27 05:20:50;;;;;;;;;5.00;4.00;;;;;19.38;84.29;100873.88;5013964;28;45565;-85
2022/08/27 05:23:19;;;;;;;;;4.00;4.00;;;;;19.42;84.50;100882.81;5030524;28;44785;-84
2022/08/27 05:25:47;;;;;;;;;5.67;5.00;;;;;19.44;84.58;100890.88;5030818;28;45504;-85
2022/08/27 05:28:14;;;;;;;;;6.33;5.67;;;;;19.47;84.06;100896.19;5013087;28;45370;-85
2022/08/27 05:30:43;;;;;;;;;6.00;3.00;;;;;19.48;83.58;100900.69;5032938;28;45424;-85
2022/08/27 05:33:10;;;;;;;;;4.67;4.67;;;;;19.45;84.01;100895.34;5032739;28;45375;-84
2022/08/27 05:35:55;;;;;;;;;3.33;3.33;;;;;19.44;83.93;100890.88;5032168;28;47132;-84
2022/08/27 05:38:26;;;;;;;;;4.00;4.00;;;;;19.45;83.28;100893.56;5013919;28;45401;-84
2022/08/27 05:41:03;;;;;;;;;4.67;4.00;;;;;19.44;83.53;100897.16;5032478;28;45458;-84
2022/08/27 05:43:28;;;;;;;;;4.33;4.00;;;;;19.42;83.25;100890.03;5015282;28;45337;-84
2022/08/27 05:45:54;;;;;;;;;7.67;5.67;;;;;19.35;83.23;100884.75;5027447;28;45273;-84
2022/08/27 05:48:19;;;;;;;;;4.67;4.67;;;;;19.41;83.15;100893.63;5031800;28;44764;-84
2022/08/27 05:50:45;;;;;;;;;7.33;6.33;;;;;19.41;83.28;100899.00;5022862;28;45079;-85
2022/08/27 05:53:11;;;;;;;;;5.00;5.00;;;;;19.39;84.27;100897.25;5028932;28;45304;-85
2022/08/27 05:55:39;;;;;;;;;6.67;6.67;;;;;19.35;83.00;100895.53;5012275;28;47118;-85
2022/08/27 05:58:07;;;;;;;;;5.33;5.33;;;;;19.30;83.10;100894.72;5020452;28;45454;-85
2022/08/27 06:03:20;;;;;;;;;7.00;7.00;;;;;19.30;83.21;100892.03;5017461;28;45197;-85
2022/08/27 06:05:45;;;;;;;;;6.00;4.33;;;;;19.36;83.22;100891.91;5021456;28;46914;-84
2022/08/27 06:08:11;;;;;;;;;5.33;5.33;;;;;19.39;82.66;100893.69;5028686;28;45443;-84
2022/08/27 06:10:40;;;;;;;;;7.67;5.33;;;;;19.49;82.55;100897.97;4995431;28;45169;-84
2022/08/27 06:13:06;;;;;;;;;4.00;4.00;;;;;19.56;82.11;100885.22;5012525;28;45581;-83
2022/08/27 06:15:31;;;;;;;;;9.00;6.00;;;;;19.69;81.86;100884.06;5045398;28;46572;-84
2022/08/27 06:17:57;;;;;;;;;3.33;3.33;;;;;19.82;81.49;100897.31;5048190;28;45464;-84
2022/08/27 06:20:22;;;;;;;;;4.67;4.67;;;;;19.94;80.56;100894.34;5048905;28;45442;-85
2022/08/27 06:22:48;;;;;;;;;6.00;6.00;;;;;20.00;79.89;100891.50;5050307;28;45382;-84
2022/08/27 06:25:13;;;;;;;;;5.33;5.33;;;;;20.07;79.52;100887.72;5031801;28;46386;-85
2022/08/27 06:27:39;;;;;;;;;6.00;6.00;;;;;20.09;78.92;100883.19;5047039;28;45272;-85
2022/08/27 06:30:06;;;;;;;;;6.33;5.00;;;;;20.22;78.35;100881.09;5050182;28;45297;-85
2022/08/27 06:32:35;;;;;;;;;7.67;6.33;;;;;20.32;77.62;100892.56;5030561;28;45451;-84
2022/08/27 06:35:00;;;;;;;;;5.67;5.67;;;;;20.33;77.17;100895.22;5031514;28;47721;-85
2022/08/27 06:37:26;;;;;;;;;6.00;4.33;;;;;20.31;76.93;100897.06;5048795;28;45390;-84
2022/08/27 06:39:51;;;;;;;;;5.67;4.00;;;;;20.27;76.79;100891.78;5047325;28;45417;-84
2022/08/27 06:42:17;;;;;;;;;8.00;8.00;;;;;20.35;76.56;100900.59;5026718;28;45531;-85
2022/08/27 06:44:42;;;;;;;;;6.33;5.33;;;;;20.37;76.31;100894.22;5031379;28;45650;-86
2022/08/27 06:47:08;;;;;;;;;5.33;5.00;;;;;20.43;75.92;100889.63;5047227;28;45434;-84
2022/08/27 06:49:34;;;;;;;;;8.67;7.00;;;;;20.55;75.60;100898.31;5049212;28;45371;-84
2022/08/27 06:52:00;;;;;;;;;4.33;4.33;;;;;20.65;75.06;100906.22;5031418;28;45307;-85
2022/08/27 06:54:25;;;;;;;;;7.00;7.00;;;;;20.74;74.40;100905.97;5047967;28;48191;-84
2022/08/27 06:56:51;;;;;;;;;7.00;7.00;;;;;20.82;74.07;100906.66;5047958;28;45484;-84
2022/08/27 06:59:17;;;;;;;;;8.00;7.33;;;;;20.90;73.59;100909.19;5049585;28;45369;-84
2022/08/27 07:01:46;;;;;;;;;7.33;7.33;;;;;20.95;73.17;100908.13;5049982;28;45331;-85
2022/08/27 07:04:20;;;;;;;;;8.67;7.33;;;;;20.94;72.45;100916.28;5048711;28;47399;-85
2022/08/27 07:06:45;;;;;;;;;7.33;7.33;;;;;20.79;72.62;100912.16;5050855;28;45375;-84
2022/08/27 07:09:13;;;;;;;;;8.00;7.33;;;;;20.86;72.78;100924.59;5048900;28;45427;-85
2022/08/27 07:11:42;;;;;;;;;7.00;7.00;;;;;20.86;72.86;100927.28;5033392;28;45359;-85
2022/08/27 07:14:08;;;;;;;;;9.00;7.00;;;;;20.95;72.48;100921.66;5050527;28;45387;-85
2022/08/27 07:16:34;;;;;;;;;5.00;5.00;;;;;20.96;71.77;100912.59;5050305;28;45620;-85
2022/08/27 07:19:02;;;;;;;;;8.33;8.33;;;;;21.02;71.77;100918.78;5033183;28;44741;-85
2022/08/27 07:21:28;;;;;;;;;9.00;8.00;;;;;21.09;71.72;100918.59;5049781;28;44865;-84
2022/08/27 07:23:58;;;;;;;;;8.00;8.00;;;;;21.21;70.87;100925.50;5049495;28;45758;-85
2022/08/27 07:26:24;;;;;;;;;10.67;10.33;;;;;21.30;70.76;100924.34;5032024;28;45752;-85
2022/08/27 07:28:52;;;;;;;;;8.67;8.00;;;;;21.39;70.89;100929.50;5032886;28;44958;-85
2022/08/27 07:31:20;;;;;;;;;7.67;7.67;;;;;21.49;70.59;100914.81;5031857;28;45496;-85
2022/08/27 07:33:47;;;;;;;;;9.00;9.00;;;;;21.64;69.71;100921.59;5047548;28;45233;-85
2022/08/27 07:36:14;;;;;;;;;9.00;8.00;;;;;21.76;69.51;100929.38;5048053;28;45424;-84
2022/08/27 07:38:39;;;;;;;;;7.00;7.00;;;;;21.84;68.86;100922.84;5048988;28;45442;-84
2022/08/27 07:41:10;;;;;;;;;9.67;8.00;;;;;21.83;68.66;100921.06;5049979;28;44819;-84
2022/08/27 07:46:22;;;;;;;;;7.00;7.00;;;;;22.05;67.22;100932.13;5048740;28;44647;-85
2022/08/27 07:48:48;;;;;;;;;8.00;8.00;;;;;22.09;67.26;100926.56;5048417;28;44848;-85
2022/08/27 07:51:17;;;;;;;;;8.00;8.00;;;;;22.02;66.55;100914.16;5048072;28;45526;-84
2022/08/27 07:53:43;;;;;;;;;8.00;8.00;;;;;22.10;66.26;100930.19;5031504;28;46810;-85
2022/08/27 07:56:09;;;;;;;;;7.33;7.33;;;;;22.15;66.29;100925.50;5032937;28;45410;-84
2022/08/27 07:58:35;;;;;;;;;7.67;7.67;;;;;22.29;65.14;100930.53;5050177;28;44774;-84
2022/08/27 08:01:02;;;;;;;;;7.33;7.33;;;;;22.27;66.50;100935.09;5049327;28;45688;-85
2022/08/27 08:03:27;;;;;;;;;7.00;7.00;;;;;22.34;65.84;100934.88;5048873;28;45485;-84
2022/08/27 08:05:54;;;;;;;;;9.33;9.33;;;;;22.41;65.15;100942.81;5030835;28;44882;-85
2022/08/27 08:08:21;;;;;;;;;9.00;8.33;;;;;22.46;64.93;100944.44;5012658;28;45371;-85
2022/08/27 08:10:47;;;;;;;;;6.00;6.00;;;;;22.45;63.98;100937.22;5029395;28;45379;-84
2022/08/27 08:13:14;;;;;;;;;4.00;4.00;;;;;22.42;64.15;100931.91;5011536;28;47209;-84
2022/08/27 08:15:42;;;;;;;;;6.00;6.00;;;;;22.38;64.78;100938.38;5011636;28;45363;-84
2022/08/27 08:18:08;;;;;;;;;8.00;8.00;;;;;22.39;64.83;100941.97;5011487;28;45427;-84
2022/08/27 08:20:33;;;;;;;;;6.67;6.00;;;;;22.36;64.79;100924.88;5029015;28;45328;-85
2022/08/27 08:23:00;;;;;;;;;10.33;8.00;;;;;22.55;64.47;100929.69;5028502;28;46785;-85
2022/08/27 08:25:26;;;;;;;;;9.67;9.33;;;;;22.68;63.96;100941.00;5029836;28;44806;-85
2022/08/27 08:27:51;;;;;;;;;8.33;8.33;;;;;22.69;63.63;100938.25;5028721;28;45519;-85
2022/08/27 08:30:17;;;;;;;;;6.67;6.67;;;;;22.64;62.15;100940.22;5010672;28;45405;-84
2022/08/27 08:32:42;;;;;;;;;7.00;7.00;;;;;22.57;61.34;100944.97;5028225;28;45551;-84
2022/08/27 08:35:10;;;;;;;;;9.33;8.00;;;;;22.56;62.02;100937.78;5028405;28;45382;-85
2022/08/27 08:37:36;;;;;;;;;5.67;5.67;;;;;22.54;60.94;100936.03;5030120;28;45396;-85
2022/08/27 08:40:04;;;;;;;;;5.00;5.00;;;;;22.57;61.78;100934.13;5029812;28;45434;-85
2022/08/27 08:42:43;;;;;;;;;6.00;6.00;;;;;22.64;61.94;100933.91;5011318;28;46613;-86
2022/08/27 08:45:12;;;;;;;;;4.67;4.67;;;;;22.66;61.31;100937.47;5016290;28;45192;-85
2022/08/27 08:47:50;;;;;;;;;5.00;5.00;;;;;22.67;60.42;100934.69;5028565;28;45442;-85
2022/08/27 08:50:24;;;;;;;;;4.67;4.67;;;;;22.65;58.46;100942.00;5037509;28;45311;-84
2022/08/27 08:53:01;;;;;;;;;5.67;4.00;;;;;22.68;58.61;100938.28;5054446;28;46147;-85
2022/08/27 08:56:16;;;;;;;;;6.00;6.00;;;;;22.72;59.08;100948.09;5054369;28;45834;-86
2022/08/27 08:58:46;;;;;;;;;6.33;5.33;;;;;22.74;57.88;100940.81;5020815;28;45449;-85
2022/08/27 09:01:16;;;;;;;;;6.00;6.00;;;;;22.69;58.44;100930.13;5050581;28;45431;-86
2022/08/27 09:03:56;;;;;;;;;6.67;4.00;;;;;22.77;58.06;100932.56;5050963;28;45393;-86
2022/08/27 09:06:49;;;;;;;;;2.33;2.33;;;;;22.83;56.14;100935.09;5033640;28;45308;-85
2022/08/27 09:09:24;;;;;;;;;7.00;7.00;;;;;22.82;56.33;100938.72;5035854;28;44814;-85
2022/08/27 09:12:10;;;;;;;;;6.00;4.33;;;;;22.75;56.74;100942.59;5053117;28;45294;-85
2022/08/27 09:14:49;;;;;;;;;6.00;6.00;;;;;22.74;57.90;100936.28;5052242;28;45373;-84
2022/08/27 09:17:15;;;;;;;;;5.00;5.00;;;;;22.92;57.49;100944.72;5051512;28;45482;-85
2022/08/27 09:19:41;;;;;;;;;7.33;5.67;;;;;22.98;57.12;100939.09;5052925;28;45438;-84
2022/08/27 09:22:16;;;;;;;;;6.00;6.00;;;;;23.11;57.11;100947.75;5051784;28;45486;-84
2022/08/27 09:25:02;;;;;;;;;6.33;4.33;;;;;23.13;55.27;100937.72;5052172;28;45566;-84
2022/08/27 09:27:28;;;;;;;;;5.00;5.00;;;;;23.04;53.67;100936.19;5052123;28;45365;-85
2022/08/27 09:29:55;;;;;;;;;5.00;5.00;;;;;23.03;53.15;100942.56;5051632;28;44825;-85
2022/08/27 09:32:26;;;;;;;;;7.00;7.00;;;;;23.03;54.93;100949.84;5050711;28;45400;-85
2022/08/27 09:34:57;;;;;;;;;4.00;4.00;;;;;23.08;54.10;100940.56;5034286;28;46870;-86
2022/08/27 09:37:26;;;;;;;;;6.67;4.67;;;;;23.13;53.92;100948.56;5051309;28;45308;-85
2022/08/27 09:40:06;;;;;;;;;7.00;5.67;;;;;23.20;53.34;100939.25;5049965;28;45450;-84
2022/08/27 09:42:46;;;;;;;;;6.00;6.00;;;;;23.34;54.79;100945.09;5051000;28;45049;-84
2022/08/27 09:45:18;;;;;;;;;4.00;4.00;;;;;23.42;50.57;100930.38;5051313;28;46663;-84
2022/08/27 09:47:53;;;;;;;;;5.67;5.67;;;;;23.51;50.72;100938.16;5049434;28;45334;-85
2022/08/27 09:50:23;;;;;;;;;3.67;3.00;;;;;23.62;52.93;100944.09;5051801;28;45268;-84
2022/08/27 09:52:59;;;;;;;;;6.00;5.00;;;;;23.74;50.42;100937.31;5049784;28;45783;-85
2022/08/27 09:55:42;;;;;;;;;5.67;4.00;;;;;23.74;50.33;100942.75;5049687;28;46892;-84
2022/08/27 09:58:20;;;;;;;;;7.33;5.67;;;;;23.74;51.22;100940.91;5033954;28;45326;-85
2022/08/27 10:00:47;;;;;;;;;6.33;6.33;;;;;23.76;50.76;100941.75;5050786;28;44859;-84
2022/08/27 10:03:13;;;;;;;;;5.33;5.33;;;;;23.78;49.01;100938.13;5034860;28;45451;-85
2022/08/27 10:05:49;;;;;;;;;5.00;5.00;;;;;23.85;50.81;100936.94;5044012;28;46115;-85
2022/08/27 10:08:17;;;;;;;;;6.33;6.33;;;;;23.95;47.56;100935.63;5013105;28;45978;-85
2022/08/27 10:10:50;;;;;;;;;5.00;4.67;;;;;23.98;46.93;100943.69;5031728;28;45367;-85
2022/08/27 10:13:41;;;;;;;;;6.00;6.00;;;;;23.99;50.13;100929.13;5031093;28;44847;-85
2022/08/27 10:16:10;;;;;;;;;5.67;5.67;;;;;23.99;50.28;100942.72;5026915;28;46867;-85
2022/08/27 10:18:54;;;;;;;;;5.67;5.67;;;;;23.89;49.38;100941.31;5013538;28;45636;-85
2022/08/27 10:21:52;;;;;;;;;4.33;4.33;;;;;23.81;48.87;100944.31;5014322;28;44798;-85
2022/08/27 10:24:52;;;;;;;;;4.67;4.00;;;;;23.85;50.26;100947.81;5012954;28;44833;-85
2022/08/27 10:27:38;;;;;;;;;4.00;4.00;;;;;23.98;49.06;100940.97;5013602;28;47254;-85
2022/08/27 10:30:09;;;;;;;;;6.67;5.33;;;;;23.95;49.06;100927.50;5013460;28;45450;-85
2022/08/27 10:33:02;;;;;;;;;5.00;4.67;;;;;24.09;48.82;100927.84;5031131;28;45401;-86
2022/08/27 10:35:50;;;;;;;;;3.00;3.00;;;;;24.15;46.18;100927.59;5014031;28;45711;-86
2022/08/27 10:38:52;;;;;;;;;3.00;3.00;;;;;24.12;46.35;100929.56;5014930;28;46738;-85
2022/08/27 10:41:33;;;;;;;;;5.00;5.00;;;;;24.14;45.01;100930.41;5014230;28;44786;-85
2022/08/27 10:44:18;;;;;;;;;6.00;4.00;;;;;24.20;44.68;100929.25;5031752;28;44880;-85
2022/08/27 10:47:08;;;;;;;;;3.00;3.00;;;;;24.17;45.53;100927.53;5032105;28;44762;-86
2022/08/27 10:49:42;;;;;;;;;5.00;5.00;;;;;24.13;45.81;100910.47;5033076;28;45873;-85
2022/08/27 10:52:26;;;;;;;;;4.00;4.00;;;;;24.15;45.20;100918.56;5015757;28;45384;-86
2022/08/27 10:54:55;;;;;;;;;4.00;4.00;;;;;24.12;45.13;100925.00;5015378;28;45470;-86
2022/08/27 10:57:43;;;;;;;;;5.00;5.00;;;;;24.11;45.91;100917.78;5014839;28;45373;-85
2022/08/27 11:00:15;;;;;;;;;8.00;7.00;;;;;24.13;45.23;100917.72;5014602;28;46882;-86
2022/08/27 11:02:50;;;;;;;;;4.00;4.00;;;;;24.17;45.38;100911.22;5013975;28;44951;-85
2022/08/27 11:05:27;;;;;;;;;3.50;3.50;;;;;24.20;45.12;100908.41;5013790;28;45571;-86
2022/08/27 11:08:20;;;;;;;;;7.33;5.67;;;;;24.13;45.67;100899.59;5012162;28;45599;-84
2022/08/27 11:10:57;;;;;;;;;4.67;3.33;;;;;24.09;45.60;100892.50;4996147;28;45393;-84
2022/08/27 11:13:42;;;;;;;;;6.00;4.50;;;;;24.12;46.78;100900.56;5008037;28;46115;-84
2022/08/27 11:16:34;;;;;;;;;5.00;5.00;;;;;24.04;46.82;100886.38;5008367;28;45422;-85
2022/08/27 11:19:10;;;;;;;;;4.67;4.67;;;;;24.11;46.73;100885.19;5010904;28;45511;-84
2022/08/27 11:21:59;;;;;;;;;6.00;6.00;;;;;24.27;45.58;100890.00;4993930;28;47524;-85
2022/08/27 11:24:37;;;;;;;;;4.33;4.33;;;;;24.33;45.25;100878.88;5009699;28;45851;-85
2022/08/27 11:27:07;;;;;;;;;5.00;5.00;;;;;24.34;44.55;100884.28;5010200;28;44778;-85
2022/08/27 11:29:41;;;;;;;;;5.00;5.00;;;;;24.31;44.30;100880.78;5008658;28;45443;-85
2022/08/27 11:32:15;;;;;;;;;4.33;3.33;;;;;24.36;44.21;100878.78;4991046;28;47905;-84
2022/08/27 11:34:54;;;;;;;;;3.33;3.33;;;;;24.36;44.65;100879.66;4989653;28;45348;-84
2022/08/27 11:38:07;;;;;;;;;6.00;6.00;;;;;24.44;43.44;100875.72;4989050;28;45793;-84
2022/08/27 11:40:48;;;;;;;;;5.67;5.67;;;;;24.47;44.51;100886.47;4907291;28;45512;-85
2022/08/27 11:43:19;;;;;;;;;4.67;4.67;;;;;24.44;44.47;100871.19;4906982;28;46954;-85
2022/08/27 11:45:57;;;;;;;;;4.00;4.00;;;;;24.42;43.96;100874.91;4907432;28;45859;-85
2022/08/27 11:48:32;;;;;;;;;2.25;2.25;;;;;24.35;43.88;100871.56;4907150;28;45406;-85
2022/08/27 11:51:02;;;;;;;;;6.00;6.00;;;;;24.40;43.98;100882.22;4908343;29;45391;-85
2022/08/27 11:53:35;;;;;;;;;4.33;4.33;;;;;24.37;43.84;100877.81;4908808;29;47074;-85
2022/08/27 11:56:19;;;;;;;;;4.33;4.33;;;;;24.41;44.40;100876.75;4906575;29;45395;-85